Time;durP1;ratioP1;P1;durP2;ratioP2;P2;SDS_P1;SDS_P2;PMS_P1;PMS_P2;Temp;Humidity;BMP_temperature;BMP_pressure;BME280_temperature;BME280_humidity;BME280_pressure;Samples;Min_cycle;Max_cycle;Signal;HPM_P1;HPM_P2
2021/01/02 00:00:37;;;;;;;74.00;37.78;;;2.30;85.30;;;;;;5033342;28;20037;-78
2021/01/02 00:03:54;;;;;;;69.53;38.05;;;2.30;85.30;;;;;;5033053;28;20025;-76
2021/01/02 00:06:52;;;;;;;67.03;37.30;;;2.30;85.20;;;;;;4966800;28;20038;-76
2021/01/02 00:09:21;;;;;;;61.90;34.40;;;2.30;85.30;;;;;;5029655;28;20021;-76
2021/01/02 00:12:32;;;;;;;65.07;38.00;;;2.40;85.30;;;;;;5017277;28;20071;-78
2021/01/02 00:15:08;;;;;;;71.22;35.15;;;2.30;85.40;;;;;;4984960;28;20046;-78
2021/01/02 00:17:41;;;;;;;74.22;36.95;;;2.30;85.40;;;;;;5031826;28;20065;-77
2021/01/02 00:20:12;;;;;;;78.45;37.65;;;2.30;85.50;;;;;;5031613;28;20116;-78
2021/01/02 00:22:41;;;;;;;74.43;39.00;;;2.30;85.50;;;;;;5033005;28;20029;-78
2021/01/02 00:25:12;;;;;;;73.45;37.38;;;2.30;85.60;;;;;;5015216;28;20033;-78
2021/01/02 00:28:04;;;;;;;75.97;37.97;;;2.30;85.60;;;;;;5032867;28;20021;-78
2021/01/02 00:30:57;;;;;;;68.68;35.47;;;2.30;85.50;;;;;;5011753;28;20045;-77
2021/01/02 00:33:45;;;;;;;65.25;35.00;;;2.20;85.60;;;;;;5029861;28;20068;-78
2021/01/02 00:36:22;;;;;;;77.93;36.80;;;2.30;85.50;;;;;;5031377;28;20103;-78
2021/01/02 00:38:47;;;;;;;72.47;36.42;;;2.30;85.50;;;;;;5031399;28;20132;-78
2021/01/02 00:41:15;;;;;;;65.45;36.78;;;2.30;85.60;;;;;;5032663;28;20540;-78
2021/01/02 00:43:45;;;;;;;66.53;35.90;;;2.30;85.50;;;;;;5014741;28;20052;-78
2021/01/02 00:46:11;;;;;;;64.07;34.88;;;2.30;85.50;;;;;;5033668;28;20037;-77
2021/01/02 00:48:40;;;;;;;60.40;35.25;;;2.30;85.50;;;;;;5033042;28;20048;-77
2021/01/02 00:51:09;;;;;;;65.75;35.00;;;2.30;85.40;;;;;;5033094;28;20025;-77
2021/01/02 00:53:56;;;;;;;67.15;36.50;;;2.30;85.50;;;;;;5014689;28;20028;-77
2021/01/02 00:56:32;;;;;;;66.00;34.00;;;2.30;85.70;;;;;;5014570;28;20554;-77
2021/01/02 00:59:33;;;;;;;68.30;35.78;;;2.40;85.60;;;;;;5032216;28;20037;-77
2021/01/02 01:02:12;;;;;;;62.03;34.00;;;2.40;85.30;;;;;;5025115;22;20017;-77
2021/01/02 01:04:56;;;;;;;64.65;34.47;;;2.50;85.30;;;;;;5032091;28;20109;-77
2021/01/02 01:07:26;;;;;;;66.97;35.88;;;2.60;85.10;;;;;;5032287;28;20488;-76
2021/01/02 01:09:56;;;;;;;69.63;36.72;;;2.70;84.90;;;;;;5032228;28;20544;-77
2021/01/02 01:12:27;;;;;;;67.88;35.25;;;2.70;84.80;;;;;;5032464;28;20021;-77
2021/01/02 01:14:53;;;;;;;;;;;2.70;84.90;;;;;;5032472;28;20022;-76
2021/01/02 01:17:31;;;;;;;66.65;34.10;;;2.60;84.50;;;;;;5032219;28;19959;-77
2021/01/02 01:20:01;;;;;;;69.90;35.17;;;2.50;85.20;;;;;;4999821;28;20025;-77
2021/01/02 01:22:30;;;;;;;74.60;38.35;;;2.60;84.90;;;;;;5032106;28;20028;-77
2021/01/02 01:25:06;;;;;;;71.20;38.35;;;2.40;85.00;;;;;;5014248;28;20587;-77
2021/01/02 01:27:38;;;;;;;71.97;36.55;;;2.30;85.30;;;;;;5032259;28;20084;-77
2021/01/02 01:30:05;;;;;;;72.45;36.45;;;2.30;85.50;;;;;;5031816;28;20035;-77
2021/01/02 01:32:37;;;;;;;75.25;38.20;;;2.30;85.40;;;;;;5014246;28;20013;-77
2021/01/02 01:35:04;;;;;;;75.25;37.40;;;2.30;85.50;;;;;;5014186;28;20383;-77
2021/01/02 01:37:32;;;;;;;60.42;34.40;;;2.40;85.40;;;;;;5031927;28;20025;-77
2021/01/02 01:39:58;;;;;;;70.32;36.97;;;2.40;85.40;;;;;;5031813;28;20496;-77
2021/01/02 01:42:44;;;;;;;71.38;37.28;;;2.40;85.40;;;;;;5014407;28;20025;-77
2021/01/02 01:45:29;;;;;;;67.22;36.83;;;2.30;85.40;;;;;;5032119;28;20033;-78
2021/01/02 01:48:10;;;;;;;66.75;37.53;;;2.30;85.50;;;;;;5016840;28;20350;-78
2021/01/02 01:50:44;;;;;;;72.32;36.13;;;2.30;85.40;;;;;;5014140;28;20029;-77
2021/01/02 01:53:30;;;;;;;61.78;34.70;;;2.30;85.60;;;;;;5031755;28;20610;-77
2021/01/02 01:55:58;;;;;;;65.80;34.85;;;2.30;85.70;;;;;;4999019;28;20443;-77
2021/01/02 01:58:37;;;;;;;63.90;34.78;;;2.40;85.70;;;;;;5031801;28;20022;-77
2021/01/02 02:01:04;;;;;;;69.50;35.33;;;2.50;85.60;;;;;;5031804;28;20476;-78
2021/01/02 02:03:36;;;;;;;63.15;34.42;;;2.50;85.00;;;;;;5033246;28;20041;-77
2021/01/02 02:06:24;;;;;;;66.22;34.35;;;2.50;85.00;;;;;;5031601;28;20076;-78
2021/01/02 02:09:00;;;;;;;65.68;34.22;;;2.50;85.30;;;;;;5035470;28;20112;-77
2021/01/02 02:11:35;;;;;;;63.95;33.80;;;2.50;85.10;;;;;;5035641;28;20025;-79
2021/01/02 02:14:10;;;;;;;72.45;35.05;;;2.40;85.00;;;;;;5035350;28;20108;-78
2021/01/02 02:17:02;;;;;;;65.45;34.75;;;2.40;85.20;;;;;;5035412;28;20033;-77
2021/01/02 02:19:55;;;;;;;67.55;36.45;;;2.30;85.40;;;;;;5035390;28;20021;-78
2021/01/02 02:22:26;;;;;;;72.25;36.30;;;2.20;85.70;;;;;;5018242;28;20022;-78
2021/01/02 02:24:56;;;;;;;67.07;34.80;;;2.20;85.90;;;;;;5035165;28;20108;-77
2021/01/02 02:27:26;;;;;;;72.13;37.30;;;2.10;86.00;;;;;;5035125;28;20087;-78
2021/01/02 02:30:05;;;;;;;67.78;35.88;;;2.10;86.30;;;;;;5035190;28;20044;-77
2021/01/02 02:32:35;;;;;;;66.63;34.15;;;2.20;86.30;;;;;;5035328;28;20104;-77
2021/01/02 02:35:07;;;;;;;65.32;36.22;;;2.20;86.00;;;;;;5035189;28;20030;-78
2021/01/02 02:37:35;;;;;;;66.43;33.38;;;2.30;85.80;;;;;;5034889;28;20057;-78
2021/01/02 02:40:02;;;;;;;65.72;35.13;;;2.30;85.90;;;;;;5017073;28;20550;-77
2021/01/02 02:42:31;;;;;;;65.53;33.13;;;2.40;85.80;;;;;;5034916;28;20101;-77
2021/01/02 02:44:58;;;;;;;64.10;33.58;;;2.40;85.70;;;;;;5034655;28;20025;-78
2021/01/02 02:47:25;;;;;;;59.30;32.88;;;2.40;85.60;;;;;;5034732;28;20100;-78
2021/01/02 02:49:56;;;;;;;64.03;31.80;;;2.40;85.50;;;;;;5034863;28;20014;-78
2021/01/02 02:52:38;;;;;;;58.85;31.83;;;2.50;85.40;;;;;;5034933;28;20052;-78
2021/01/02 02:55:04;;;;;;;60.17;31.77;;;2.50;85.30;;;;;;5034805;28;20041;-78
2021/01/02 02:57:32;;;;;;;62.58;33.10;;;2.50;85.10;;;;;;5034511;28;20431;-78
2021/01/02 02:59:58;;;;;;;62.72;31.80;;;2.50;85.10;;;;;;5034417;28;20025;-77
2021/01/02 03:02:26;;;;;;;62.72;33.05;;;2.50;85.00;;;;;;5034413;28;20578;-77
2021/01/02 03:04:52;;;;;;;54.92;31.52;;;2.50;85.00;;;;;;5034272;28;20017;-78
2021/01/02 03:07:17;;;;;;;63.83;33.15;;;2.50;84.90;;;;;;5034792;28;20121;-78
2021/01/02 03:09:44;;;;;;;60.15;32.13;;;2.50;84.70;;;;;;5034288;28;20033;-78
2021/01/02 03:12:09;;;;;;;60.65;31.85;;;2.50;84.50;;;;;;5034524;28;20029;-78
2021/01/02 03:14:36;;;;;;;60.35;32.33;;;2.50;84.80;;;;;;5033148;28;20022;-78
2021/01/02 03:17:02;;;;;;;66.03;32.90;;;2.40;84.40;;;;;;5034109;28;20369;-78
2021/01/02 03:19:33;;;;;;;58.50;32.10;;;2.40;84.60;;;;;;5034163;28;20024;-78
2021/01/02 03:21:59;;;;;;;58.60;31.95;;;2.40;84.50;;;;;;5034019;28;20026;-78
2021/01/02 03:24:25;;;;;;;64.57;32.63;;;2.40;84.70;;;;;;5034078;28;20032;-78
2021/01/02 03:26:51;;;;;;;61.95;32.78;;;2.30;84.70;;;;;;5033970;28;20057;-77
2021/01/02 03:29:17;;;;;;;67.03;33.78;;;2.30;84.90;;;;;;5034067;28;20057;-77
2021/01/02 03:31:43;;;;;;;64.07;33.10;;;2.30;84.80;;;;;;5033961;28;20030;-78
2021/01/02 03:34:08;;;;;;;59.85;32.28;;;2.30;84.90;;;;;;5033919;28;20035;-77
2021/01/02 03:36:34;;;;;;;62.15;34.72;;;2.30;85.00;;;;;;5033871;28;20041;-77
2021/01/02 03:39:00;;;;;;;59.28;32.25;;;2.40;84.80;;;;;;5033950;28;20017;-77
2021/01/02 03:41:27;;;;;;;64.93;31.65;;;2.50;84.40;;;;;;5033811;28;20030;-77
2021/01/02 03:43:53;;;;;;;61.47;33.13;;;2.40;84.50;;;;;;5033951;28;20096;-77
2021/01/02 03:46:19;;;;;;;55.70;31.75;;;2.50;84.70;;;;;;5016057;28;20120;-77
2021/01/02 03:48:45;;;;;;;61.00;32.35;;;2.50;84.70;;;;;;5033927;28;20060;-77
2021/01/02 03:51:11;;;;;;;63.45;31.90;;;2.50;84.20;;;;;;5033942;28;20060;-77
2021/01/02 03:53:37;;;;;;;56.95;30.27;;;2.50;83.90;;;;;;5033040;28;20021;-77
2021/01/02 03:56:03;;;;;;;60.60;33.95;;;2.50;84.20;;;;;;5033263;28;20061;-77
2021/01/02 03:58:28;;;;;;;66.13;34.45;;;2.40;84.20;;;;;;5033560;28;20477;-78
2021/01/02 04:00:54;;;;;;;59.22;31.92;;;2.30;84.40;;;;;;5015551;28;20029;-79
2021/01/02 04:03:20;;;;;;;248.13;124.15;;;2.30;84.40;;;;;;5033440;28;20053;-79
2021/01/02 04:05:46;;;;;;;104.13;50.38;;;2.30;84.60;;;;;;5027204;28;20026;-78
2021/01/02 04:08:12;;;;;;;508.98;273.65;;;2.20;85.00;;;;;;5033140;28;20087;-78
2021/01/02 04:10:39;;;;;;;88.10;52.88;;;2.20;85.20;;;;;;5033161;28;20484;-78
2021/01/02 04:13:05;;;;;;;68.22;32.63;;;2.20;85.00;;;;;;5033212;28;20028;-78
2021/01/02 04:15:31;;;;;;;60.67;33.38;;;2.20;84.80;;;;;;5032987;28;20033;-78
2021/01/02 04:17:56;;;;;;;64.90;34.40;;;2.20;84.90;;;;;;5033015;28;20025;-78
2021/01/02 04:20:24;;;;;;;62.10;33.45;;;2.10;84.90;;;;;;5015389;28;20022;-78
2021/01/02 04:22:50;;;;;;;63.47;34.10;;;2.20;84.90;;;;;;5033169;28;20127;-78
2021/01/02 04:25:15;;;;;;;67.47;35.42;;;2.00;84.80;;;;;;5032598;28;20484;-78
2021/01/02 04:27:41;;;;;;;65.10;33.63;;;2.00;85.20;;;;;;5015173;28;20492;-78
2021/01/02 04:30:07;;;;;;;65.13;33.78;;;1.90;85.40;;;;;;5032453;28;20029;-78
2021/01/02 04:32:33;;;;;;;68.95;33.78;;;2.00;85.30;;;;;;5015108;28;20507;-78
2021/01/02 04:34:58;;;;;;;125.53;62.17;;;2.00;84.90;;;;;;5032649;28;20030;-78
2021/01/02 04:37:28;;;;;;;119.25;59.20;;;1.90;85.30;;;;;;5032598;28;20395;-77
2021/01/02 04:39:55;;;;;;;101.30;50.92;;;1.90;85.50;;;;;;5032684;28;20028;-78
2021/01/02 04:42:24;;;;;;;87.22;41.38;;;1.80;86.00;;;;;;5032893;28;20128;-78
2021/01/02 04:44:51;;;;;;;57.42;31.42;;;1.90;85.90;;;;;;5032907;28;20026;-78
2021/01/02 04:47:19;;;;;;;66.78;34.58;;;1.90;85.60;;;;;;5032678;28;20029;-78
2021/01/02 04:49:45;;;;;;;59.90;31.88;;;1.80;85.20;;;;;;5032567;28;20072;-78
2021/01/02 04:52:16;;;;;;;71.72;35.15;;;1.80;85.40;;;;;;5014675;28;20060;-78
2021/01/02 04:54:48;;;;;;;66.93;33.58;;;1.70;85.60;;;;;;5014838;28;20033;-78
2021/01/02 04:57:14;;;;;;;;;;;1.70;85.70;;;;;;5014945;28;20045;-78
2021/01/02 04:59:40;;;;;;;65.28;33.00;;;1.70;85.70;;;;;;5014625;28;19905;-78
2021/01/02 05:02:12;;;;;;;70.65;33.50;;;1.70;85.80;;;;;;5032093;28;20303;-78
2021/01/02 05:04:38;;;;;;;69.57;34.55;;;1.60;85.80;;;;;;5026227;28;20033;-77
2021/01/02 05:07:03;;;;;;;69.93;34.80;;;1.70;85.70;;;;;;5032291;28;20033;-78
2021/01/02 05:09:30;;;;;;;69.97;34.88;;;1.60;85.70;;;;;;5032365;28;20022;-79
2021/01/02 05:11:56;;;;;;;68.85;33.67;;;1.70;85.80;;;;;;5032212;28;20013;-79
2021/01/02 05:14:22;;;;;;;63.25;32.33;;;1.70;85.90;;;;;;5014598;28;20083;-78
2021/01/02 05:16:47;;;;;;;70.07;34.22;;;1.60;85.60;;;;;;5032007;28;20040;-78
2021/01/02 05:19:15;;;;;;;62.80;33.55;;;1.70;85.60;;;;;;5032159;28;20034;-78
2021/01/02 05:21:45;;;;;;;127.20;63.40;;;1.70;85.50;;;;;;5032092;28;20095;-78
2021/01/02 05:24:20;;;;;;;159.70;75.97;;;1.70;85.90;;;;;;5031961;28;20079;-78
2021/01/02 05:26:52;;;;;;;84.40;41.70;;;1.80;86.10;;;;;;5032134;28;20388;-78
2021/01/02 05:29:24;;;;;;;64.22;33.85;;;1.80;85.80;;;;;;5014346;28;20088;-78
2021/01/02 05:31:55;;;;;;;64.13;33.35;;;1.90;85.40;;;;;;5016479;28;20053;-78
2021/01/02 05:34:26;;;;;;;64.47;32.60;;;1.80;85.10;;;;;;5032292;28;20026;-78
2021/01/02 05:37:08;;;;;;;61.20;32.63;;;1.90;85.00;;;;;;5032284;28;20124;-78
2021/01/02 05:39:52;;;;;;;61.17;32.22;;;1.80;84.90;;;;;;5036055;28;20026;-78
2021/01/02 05:42:21;;;;;;;67.53;33.95;;;1.80;84.90;;;;;;5035984;28;20017;-77
2021/01/02 05:44:47;;;;;;;64.18;32.72;;;1.80;84.70;;;;;;5024355;28;20033;-78
2021/01/02 05:47:27;;;;;;;68.00;32.35;;;1.70;85.00;;;;;;5031472;28;20037;-78
2021/01/02 05:49:55;;;;;;;67.75;32.92;;;1.60;85.20;;;;;;5003166;28;20022;-78
2021/01/02 05:52:31;;;;;;;66.22;31.55;;;1.60;85.30;;;;;;5036117;28;20100;-78
2021/01/02 05:54:57;;;;;;;65.38;32.38;;;1.60;85.50;;;;;;5035679;28;20511;-78
2021/01/02 05:57:25;;;;;;;69.05;36.08;;;1.60;85.40;;;;;;5017831;28;20053;-78
2021/01/02 05:59:56;;;;;;;75.78;35.95;;;1.60;85.30;;;;;;5018046;28;20488;-78
2021/01/02 06:02:29;;;;;;;71.97;36.37;;;1.70;85.20;;;;;;5035388;28;20038;-78
2021/01/02 06:05:00;;;;;;;72.35;35.28;;;1.60;85.40;;;;;;5035225;28;20052;-78
2021/01/02 06:07:34;;;;;;;67.90;32.95;;;1.60;85.40;;;;;;5035515;28;20476;-78
2021/01/02 06:10:00;;;;;;;67.13;32.63;;;1.60;85.40;;;;;;5035284;28;20092;-78
2021/01/02 06:12:27;;;;;;;60.95;30.40;;;1.70;85.40;;;;;;5035497;28;20025;-78
2021/01/02 06:14:54;;;;;;;62.95;30.95;;;1.70;85.30;;;;;;5035531;28;20033;-78
2021/01/02 06:17:46;;;;;;;63.55;31.58;;;1.80;85.00;;;;;;5033711;28;20524;-77
2021/01/02 06:20:14;;;;;;;62.70;30.70;;;1.80;85.00;;;;;;5021180;28;20439;-78
2021/01/02 06:22:41;;;;;;;58.92;30.98;;;1.90;85.20;;;;;;5017394;28;20029;-78
2021/01/02 06:25:09;;;;;;;57.42;29.48;;;1.90;84.50;;;;;;5035131;28;20076;-78
2021/01/02 06:27:39;;;;;;;62.72;30.65;;;1.90;84.50;;;;;;5035241;28;20439;-78
2021/01/02 06:30:06;;;;;;;57.83;30.07;;;1.90;84.50;;;;;;5035042;28;20047;-78
2021/01/02 06:32:32;;;;;;;58.70;30.38;;;1.90;84.40;;;;;;5035116;28;20029;-78
2021/01/02 06:35:17;;;;;;;63.40;31.50;;;1.90;84.30;;;;;;5017422;28;20061;-78
2021/01/02 06:37:49;;;;;;;53.95;29.25;;;1.90;84.30;;;;;;5035047;28;20035;-79
2021/01/02 06:40:22;;;;;;;58.55;31.35;;;1.90;84.40;;;;;;5035157;28;20076;-78
2021/01/02 06:42:58;;;;;;;58.60;31.38;;;1.90;84.20;;;;;;5034972;28;20117;-78
2021/01/02 06:45:36;;;;;;;61.45;29.77;;;1.80;84.60;;;;;;5018644;28;20040;-77
2021/01/02 06:48:17;;;;;;;55.83;30.20;;;1.80;84.30;;;;;;5034767;28;20025;-78
2021/01/02 06:50:53;;;;;;;58.90;30.55;;;1.80;84.50;;;;;;5034755;28;20025;-78
2021/01/02 06:53:22;;;;;;;63.88;31.95;;;1.80;84.40;;;;;;5032799;28;20025;-78
2021/01/02 06:56:01;;;;;;;59.72;31.15;;;1.80;84.40;;;;;;5018687;28;20040;-78
2021/01/02 06:58:35;;;;;;;59.28;30.80;;;1.70;84.60;;;;;;5034673;28;20032;-78
2021/01/02 07:01:03;;;;;;;63.85;31.85;;;1.70;85.00;;;;;;5034387;28;20021;-78
2021/01/02 07:03:48;;;;;;;60.58;31.98;;;1.60;85.00;;;;;;5041216;22;20140;-78
2021/01/02 07:06:23;;;;;;;65.28;33.28;;;1.60;85.10;;;;;;5034371;28;20033;-78
2021/01/02 07:08:54;;;;;;;64.75;31.88;;;1.60;85.30;;;;;;5034346;28;20536;-78
2021/01/02 07:11:40;;;;;;;;;;;1.50;85.40;;;;;;5034953;28;20104;-78
2021/01/02 07:14:17;;;;;;;63.25;30.60;;;1.60;85.40;;;;;;5034297;28;19995;-78
2021/01/02 07:16:55;;;;;;;58.38;30.40;;;1.60;85.40;;;;;;5034159;28;20066;-78
2021/01/02 07:19:29;;;;;;;62.05;31.02;;;1.60;85.30;;;;;;5016679;28;20083;-78
2021/01/02 07:21:59;;;;;;;61.80;30.38;;;1.60;85.50;;;;;;5034229;28;20025;-78
2021/01/02 07:24:30;;;;;;;61.72;30.65;;;1.60;85.10;;;;;;5034202;28;20025;-78
2021/01/02 07:27:00;;;;;;;60.95;31.08;;;1.60;85.30;;;;;;5034070;28;20053;-78
2021/01/02 07:29:27;;;;;;;69.00;32.40;;;1.50;85.50;;;;;;5034052;28;20502;-78
2021/01/02 07:32:06;;;;;;;63.25;31.50;;;1.50;85.50;;;;;;5034083;28;20491;-78
2021/01/02 07:34:32;;;;;;;63.78;32.25;;;1.50;85.40;;;;;;5033911;28;20026;-78
2021/01/02 07:37:21;;;;;;;65.03;32.10;;;1.50;85.60;;;;;;5033738;28;20049;-77
2021/01/02 07:40:00;;;;;;;66.88;31.70;;;1.40;85.80;;;;;;5017854;28;20022;-78
2021/01/02 07:42:28;;;;;;;63.30;31.70;;;1.50;85.70;;;;;;5033729;28;20060;-78
2021/01/02 07:45:08;;;;;;;65.38;31.00;;;1.60;85.80;;;;;;5033760;28;20059;-78
2021/01/02 07:47:34;;;;;;;63.92;30.63;;;1.60;85.60;;;;;;5033690;28;20026;-78
2021/01/02 07:50:02;;;;;;;65.53;30.00;;;1.50;85.60;;;;;;5015765;28;20518;-77
2021/01/02 07:52:27;;;;;;;62.13;31.30;;;1.60;85.50;;;;;;5033983;28;20030;-78
2021/01/02 07:54:53;;;;;;;64.35;31.85;;;1.50;85.40;;;;;;5033348;28;20034;-78
2021/01/02 07:57:24;;;;;;;58.40;30.55;;;1.60;85.80;;;;;;5033411;28;20037;-78
2021/01/02 07:59:50;;;;;;;54.97;28.23;;;1.70;85.40;;;;;;5017079;28;20022;-78
2021/01/02 08:02:21;;;;;;;60.95;30.17;;;1.70;85.00;;;;;;5033086;28;20045;-77
2021/01/02 08:04:47;;;;;;;56.70;28.10;;;1.70;84.80;;;;;;5033328;28;20041;-78
2021/01/02 08:07:13;;;;;;;56.38;28.38;;;1.80;84.60;;;;;;5033264;28;20033;-78
2021/01/02 08:09:43;;;;;;;56.42;28.10;;;1.80;84.40;;;;;;5032433;28;20038;-79
2021/01/02 08:12:09;;;;;;;60.03;28.92;;;1.70;84.40;;;;;;5032022;28;20456;-77
2021/01/02 08:14:37;;;;;;;55.28;28.42;;;1.80;84.40;;;;;;5032392;28;20069;-79
2021/01/02 08:17:07;;;;;;;54.78;29.52;;;1.70;84.30;;;;;;5014883;28;20042;-78
2021/01/02 08:19:38;;;;;;;53.45;27.15;;;1.60;84.70;;;;;;5033020;28;20078;-78
2021/01/02 08:22:05;;;;;;;;;;;1.60;84.80;;;;;;5033439;28;20476;-80
2021/01/02 08:24:31;;;;;;;52.80;25.40;;;1.70;85.20;;;;;;5032444;28;19925;-78
2021/01/02 08:26:59;;;;;;;56.65;26.45;;;1.80;84.50;;;;;;5025074;28;20021;-79
2021/01/02 08:29:25;;;;;;;59.35;28.13;;;1.80;84.20;;;;;;5031032;28;20025;-78
2021/01/02 08:31:57;;;;;;;55.50;27.65;;;1.80;84.00;;;;;;5032637;28;20087;-78
2021/01/02 08:34:31;;;;;;;56.00;27.17;;;1.90;84.60;;;;;;5032901;28;20037;-78
2021/01/02 08:37:08;;;;;;;57.95;27.88;;;2.00;83.90;;;;;;5021604;28;20038;-81
2021/01/02 08:39:38;;;;;;;48.55;25.52;;;2.00;83.60;;;;;;5032027;28;20028;-76
2021/01/02 08:42:05;;;;;;;52.03;27.42;;;2.00;83.80;;;;;;5031903;28;20022;-78
2021/01/02 08:44:36;;;;;;;52.88;26.70;;;2.00;83.50;;;;;;5004974;28;20018;-79
2021/01/02 08:47:05;;;;;;;48.42;25.23;;;1.90;84.30;;;;;;5026570;28;20032;-81
2021/01/02 08:49:41;;;;;;;52.03;26.73;;;1.90;83.80;;;;;;5032234;28;20093;-74
2021/01/02 08:52:23;;;;;;;57.90;27.17;;;1.90;84.30;;;;;;5032102;28;20032;-73
2021/01/02 08:54:53;;;;;;;53.85;27.40;;;1.90;84.30;;;;;;5033495;28;20021;-82
2021/01/02 08:57:32;;;;;;;54.40;26.05;;;2.00;83.80;;;;;;5031140;28;20124;-81
2021/01/02 09:00:30;;;;;;;53.45;25.98;;;2.10;83.50;;;;;;5027956;28;20030;-83
2021/01/02 09:03:02;;;;;;;53.33;27.13;;;2.30;82.80;;;;;;5014113;28;20052;-83
2021/01/02 09:05:39;;;;;;;51.60;25.20;;;2.40;82.70;;;;;;5014826;28;20026;-79
2021/01/02 09:08:10;;;;;;;47.97;25.75;;;2.60;81.70;;;;;;5032390;28;20026;-78
2021/01/02 09:10:35;;;;;;;52.83;26.75;;;2.70;81.10;;;;;;5032002;28;20056;-80
2021/01/02 09:13:02;;;;;;;52.85;27.63;;;2.80;80.70;;;;;;5026878;28;20025;-76
2021/01/02 09:15:56;;;;;;;49.70;24.85;;;2.70;81.10;;;;;;5031302;28;20490;-80
2021/01/02 09:18:27;;;;;;;49.38;26.30;;;2.70;82.10;;;;;;5031862;28;20499;-79
2021/01/02 09:20:53;;;;;;;52.90;26.58;;;2.70;81.70;;;;;;5031955;28;20480;-78
2021/01/02 09:23:32;;;;;;;49.90;26.45;;;2.70;81.80;;;;;;5031888;28;20498;-78
2021/01/02 09:25:58;;;;;;;58.40;27.65;;;2.70;82.00;;;;;;5017510;28;20042;-77
2021/01/02 09:28:24;;;;;;;50.88;26.48;;;2.60;81.90;;;;;;5031611;28;20026;-78
2021/01/02 09:30:51;;;;;;;50.13;27.15;;;2.50;82.40;;;;;;5032101;28;20033;-80
2021/01/02 09:33:17;;;;;;;48.30;26.20;;;2.50;81.70;;;;;;5031911;28;20468;-76
2021/01/02 09:35:44;;;;;;;47.63;24.80;;;2.50;81.80;;;;;;5031708;28;20045;-75
2021/01/02 09:38:11;;;;;;;47.83;24.52;;;2.50;81.20;;;;;;5031749;28;20025;-77
2021/01/02 09:40:39;;;;;;;48.35;24.83;;;2.60;80.90;;;;;;5013947;28;20060;-76
2021/01/02 09:43:07;;;;;;;50.20;25.08;;;2.70;80.50;;;;;;5031755;28;20029;-80
2021/01/02 09:45:32;;;;;;;50.58;25.45;;;2.70;80.40;;;;;;5015345;28;20136;-83
2021/01/02 09:47:58;;;;;;;44.80;24.33;;;2.80;80.40;;;;;;5013358;28;20120;-81
2021/01/02 09:50:24;;;;;;;51.00;25.20;;;2.80;80.60;;;;;;5031741;28;20030;-81
2021/01/02 09:52:51;;;;;;;52.17;26.67;;;2.90;80.20;;;;;;5031089;28;20045;-85
2021/01/02 09:55:17;;;;;;;49.63;24.17;;;2.90;80.10;;;;;;5013649;28;20025;-79
2021/01/02 09:57:46;;;;;;;48.17;26.60;;;3.10;80.20;;;;;;5031684;28;20035;-79
2021/01/02 10:00:12;;;;;;;49.78;26.67;;;3.10;80.00;;;;;;5031179;28;20022;-77
2021/01/02 10:02:38;;;;;;;52.80;27.00;;;3.10;80.10;;;;;;5025487;28;20060;-79
2021/01/02 10:05:05;;;;;;;45.10;24.88;;;3.20;79.80;;;;;;5031428;28;20022;-75
2021/01/02 10:07:30;;;;;;;54.60;27.95;;;3.40;79.70;;;;;;5031060;28;20071;-78
2021/01/02 10:09:56;;;;;;;52.92;27.30;;;3.40;79.30;;;;;;5030917;28;20018;-81
2021/01/02 10:12:22;;;;;;;51.53;25.95;;;3.40;79.30;;;;;;5031556;28;20096;-84
2021/01/02 10:14:48;;;;;;;52.17;27.38;;;3.30;79.20;;;;;;5013804;28;20037;-88
2021/01/02 10:17:14;;;;;;;50.33;27.48;;;3.30;79.40;;;;;;5013735;28;20038;-88
2021/01/02 10:19:45;;;;;;;57.20;28.70;;;3.00;80.00;;;;;;5031129;28;20024;-74
2021/01/02 10:22:13;;;;;;;49.60;26.55;;;3.10;80.20;;;;;;5030979;28;20022;-74
2021/01/02 10:24:38;;;;;;;56.75;28.08;;;3.20;80.20;;;;;;5033285;28;20032;-80
2021/01/02 10:27:06;;;;;;;54.92;28.10;;;3.10;80.40;;;;;;5016836;28;20472;-79
2021/01/02 10:29:31;;;;;;;59.53;28.40;;;2.90;80.50;;;;;;5034628;28;20021;-80
2021/01/02 10:32:06;;;;;;;55.25;27.35;;;2.80;80.80;;;;;;5035164;28;20029;-77
2021/01/02 10:34:32;;;;;;;48.17;26.08;;;2.90;81.30;;;;;;5034897;28;20162;-78
2021/01/02 10:36:58;;;;;;;51.47;27.60;;;2.90;80.90;;;;;;5034514;28;20040;-81
2021/01/02 10:39:24;;;;;;;55.10;26.60;;;2.90;80.90;;;;;;5034653;28;20024;-79
2021/01/02 10:41:50;;;;;;;44.70;25.23;;;3.00;81.00;;;;;;5034608;28;20025;-79
2021/01/02 10:44:19;;;;;;;49.75;24.95;;;3.00;80.70;;;;;;5027003;28;20084;-81
2021/01/02 10:46:51;;;;;;;53.40;27.40;;;3.20;80.80;;;;;;5026533;28;20056;-79
2021/01/02 10:49:19;;;;;;;49.97;26.73;;;3.20;80.30;;;;;;5032758;28;20021;-81
2021/01/02 10:51:45;;;;;;;52.17;26.67;;;3.30;79.60;;;;;;5034018;28;20108;-75
2021/01/02 10:54:13;;;;;;;52.33;27.42;;;3.50;79.90;;;;;;5034563;28;20104;-74
2021/01/02 10:56:47;;;;;;;50.45;27.50;;;3.50;79.40;;;;;;5032568;28;20136;-74
2021/01/02 10:59:13;;;;;;;53.13;29.52;;;3.60;79.30;;;;;;5032317;28;20033;-75
2021/01/02 11:01:50;;;;;;;55.58;28.40;;;3.50;78.60;;;;;;5032827;28;20095;-75
2021/01/02 11:04:17;;;;;;;53.13;27.95;;;3.60;78.70;;;;;;5033224;28;20045;-74
2021/01/02 11:06:45;;;;;;;52.50;27.25;;;3.80;78.60;;;;;;5034071;28;20437;-74
2021/01/02 11:09:13;;;;;;;51.67;27.90;;;3.90;77.80;;;;;;5016250;28;20033;-74
2021/01/02 11:11:40;;;;;;;50.83;26.55;;;4.00;78.00;;;;;;5033929;28;20472;-75
2021/01/02 11:14:05;;;;;;;54.30;28.05;;;4.20;77.60;;;;;;5016108;28;20036;-74
2021/01/02 11:16:47;;;;;;;52.53;27.55;;;4.50;77.70;;;;;;5034016;28;20037;-75
2021/01/02 11:19:24;;;;;;;48.65;28.17;;;4.40;76.30;;;;;;5033953;28;20078;-74
2021/01/02 11:21:52;;;;;;;47.42;26.95;;;4.50;76.20;;;;;;4999386;28;20029;-75
2021/01/02 11:24:21;;;;;;;52.55;28.35;;;4.60;75.30;;;;;;5032725;28;20032;-73
2021/01/02 11:26:48;;;;;;;56.95;29.17;;;4.50;75.60;;;;;;5033735;28;20040;-73
2021/01/02 11:29:15;;;;;;;55.00;28.30;;;4.50;75.80;;;;;;5033768;28;20053;-74
2021/01/02 11:31:41;;;;;;;50.47;27.90;;;4.50;77.00;;;;;;5033547;28;20024;-75
2021/01/02 11:34:08;;;;;;;56.17;28.23;;;4.60;76.50;;;;;;5015218;28;20029;-75
2021/01/02 11:36:34;;;;;;;50.67;28.98;;;4.80;76.20;;;;;;5032694;28;20025;-75
2021/01/02 11:39:00;;;;;;;44.08;26.45;;;4.90;74.90;;;;;;5033526;28;20428;-75
2021/01/02 11:41:53;;;;;;;52.17;28.83;;;4.80;75.30;;;;;;5015498;28;20030;-75
2021/01/02 11:44:21;;;;;;;52.97;27.75;;;4.90;75.30;;;;;;5017874;28;20046;-75
2021/01/02 11:46:49;;;;;;;48.63;26.85;;;4.80;74.20;;;;;;5033377;28;20022;-75
2021/01/02 11:49:21;;;;;;;49.95;26.55;;;4.60;75.10;;;;;;5033333;28;20047;-75
2021/01/02 11:51:49;;;;;;;52.80;28.60;;;4.50;76.00;;;;;;5015828;28;20034;-76
2021/01/02 11:54:15;;;;;;;52.33;27.90;;;4.30;76.40;;;;;;5032072;28;20026;-76
2021/01/02 11:56:40;;;;;;;49.08;28.20;;;4.30;76.20;;;;;;5032960;28;20494;-77
2021/01/02 11:59:06;;;;;;;49.92;27.67;;;4.10;76.40;;;;;;5033191;28;20072;-76
2021/01/02 12:01:38;;;;;;;47.83;27.15;;;4.00;77.30;;;;;;5032818;28;20076;-76
2021/01/02 12:04:07;;;;;;;42.50;25.10;;;4.10;77.90;;;;;;5032767;28;20522;-75
2021/01/02 12:06:33;;;;;;;45.00;26.50;;;4.20;77.70;;;;;;5014571;28;20033;-75
2021/01/02 12:08:59;;;;;;;46.83;25.65;;;4.30;77.40;;;;;;5014030;28;20037;-75
2021/01/02 12:11:37;;;;;;;46.10;24.67;;;4.20;77.10;;;;;;5033102;28;20080;-75
2021/01/02 12:14:04;;;;;;;45.78;25.52;;;4.30;76.40;;;;;;5032903;28;20029;-75
2021/01/02 12:16:41;;;;;;;43.10;24.92;;;4.30;75.90;;;;;;5032779;28;20476;-75
2021/01/02 12:19:10;;;;;;;43.25;25.50;;;4.10;76.10;;;;;;5032919;28;20113;-75
2021/01/02 12:21:35;;;;;;;44.60;24.70;;;4.10;76.50;;;;;;5032507;28;20029;-75
2021/01/02 12:24:01;;;;;;;43.58;25.55;;;4.00;76.30;;;;;;5032609;28;20028;-75
2021/01/02 12:26:27;;;;;;;45.10;25.17;;;4.00;76.90;;;;;;5032510;28;20061;-77
2021/01/02 12:28:54;;;;;;;44.70;25.55;;;4.00;77.40;;;;;;5032795;28;20423;-75
2021/01/02 12:31:25;;;;;;;48.65;25.67;;;4.10;76.90;;;;;;5015031;28;20025;-75
2021/01/02 12:33:51;;;;;;;;;;;4.00;76.70;;;;;;5017670;28;20028;-75
2021/01/02 12:36:19;;;;;;;46.20;23.88;;;4.10;76.70;;;;;;5032818;28;19917;-75
2021/01/02 12:38:45;;;;;;;46.45;26.08;;;4.10;76.70;;;;;;5032957;28;20033;-76
2021/01/02 12:41:20;;;;;;;48.47;27.13;;;4.20;76.80;;;;;;5033930;28;20029;-76
2021/01/02 12:43:46;;;;;;;47.00;26.75;;;4.30;76.00;;;;;;5029819;28;20083;-76
2021/01/02 12:46:12;;;;;;;50.08;26.98;;;4.20;76.00;;;;;;5031939;28;20033;-76
2021/01/02 12:48:41;;;;;;;44.58;24.90;;;4.20;75.90;;;;;;5032440;28;20022;-75
2021/01/02 12:51:08;;;;;;;48.50;25.90;;;4.10;76.40;;;;;;5032193;28;20108;-74
2021/01/02 12:53:37;;;;;;;42.58;23.90;;;4.10;76.60;;;;;;5014185;28;20028;-75
2021/01/02 12:56:03;;;;;;;44.63;24.70;;;4.30;76.30;;;;;;5014007;28;20026;-75